Time;durP1;ratioP1;P1;durP2;ratioP2;P2;SDS_P1;SDS_P2;PMS_P1;PMS_P2;Temp;Humidity;BMP_temperature;BMP_pressure;BME280_temperature;BME280_humidity;BME280_pressure;Samples;Min_cycle;Max_cycle;Signal;HPM_P1;HPM_P2
2022/03/04 00:00:07;;;;;;;8.68;6.30;;;;;;;;;;5066989;28;20047;-62
2022/03/04 00:02:32;;;;;;;8.70;5.30;;;;;;;;;;5052896;28;20021;-61
2022/03/04 00:04:57;;;;;;;5.72;4.63;;;;;;;;;;5053799;28;20045;-61
2022/03/04 00:07:22;;;;;;;6.53;5.82;;;;;;;;;;5067041;28;20035;-62
2022/03/04 00:09:47;;;;;;;10.57;6.80;;;;;;;;;;5066995;28;20078;-61
2022/03/04 00:12:13;;;;;;;7.68;6.53;;;;;;;;;;5055419;28;20743;-62
2022/03/04 00:14:38;;;;;;;6.78;6.07;;;;;;;;;;5058168;28;20496;-62
2022/03/04 00:17:03;;;;;;;7.07;5.75;;;;;;;;;;5054006;28;20469;-62
2022/03/04 00:19:29;;;;;;;6.25;5.65;;;;;;;;;;5053806;28;20355;-61
2022/03/04 00:21:54;;;;;;;10.57;7.53;;;;;;;;;;5054382;28;20032;-61
2022/03/04 00:24:20;;;;;;;7.30;6.32;;;;;;;;;;5027867;28;20033;-61
2022/03/04 00:26:46;;;;;;;7.05;5.90;;;;;;;;;;5048185;28;20017;-61
2022/03/04 00:29:11;;;;;;;6.68;5.43;;;;;;;;;;5068706;28;20569;-62
2022/03/04 00:31:37;;;;;;;6.22;5.25;;;;;;;;;;5067965;28;20021;-62
2022/03/04 00:34:06;;;;;;;8.95;6.70;;;;;;;;;;5053700;28;20481;-62
2022/03/04 00:36:31;;;;;;;8.18;6.68;;;;;;;;;;5061119;28;20166;-61
2022/03/04 00:38:57;;;;;;;7.50;6.70;;;;;;;;;;5062204;28;20140;-61
2022/03/04 00:41:22;;;;;;;9.25;6.30;;;;;;;;;;5065155;28;20024;-61
2022/03/04 00:43:48;;;;;;;7.30;6.55;;;;;;;;;;5059300;28;20082;-62
2022/03/04 00:46:13;;;;;;;8.85;7.03;;;;;;;;;;5074078;28;20017;-61
2022/03/04 00:48:39;;;;;;;10.80;7.07;;;;;;;;;;5065916;28;20377;-62
2022/03/04 00:51:05;;;;;;;7.45;5.82;;;;;;;;;;5052951;28;20024;-62
2022/03/04 00:53:30;;;;;;;9.73;7.13;;;;;;;;;;5044225;28;20029;-62
2022/03/04 00:55:55;;;;;;;7.38;5.45;;;;;;;;;;5042217;28;20104;-62
2022/03/04 00:58:21;;;;;;;9.00;6.75;;;;;;;;;;5053210;28;20021;-62
2022/03/04 01:00:46;;;;;;;8.68;6.45;;;;;;;;;;5054599;28;20079;-62
2022/03/04 01:03:11;;;;;;;8.02;6.25;;;;;;;;;;5046386;28;20056;-61
2022/03/04 01:05:37;;;;;;;8.43;6.43;;;;;;;;;;5070770;28;20509;-62
2022/03/04 01:08:02;;;;;;;8.00;6.60;;;;;;;;;;5053598;28;20060;-63
2022/03/04 01:10:27;;;;;;;6.07;4.75;;;;;;;;;;5052484;28;20043;-62
2022/03/04 01:12:52;;;;;;;7.78;5.93;;;;;;;;;;5053325;28;20028;-62
2022/03/04 01:15:17;;;;;;;8.80;5.90;;;;;;;;;;5033932;28;20025;-61
2022/03/04 01:17:43;;;;;;;5.50;4.72;;;;;;;;;;5035284;28;20028;-61
2022/03/04 01:20:08;;;;;;;5.88;5.28;;;;;;;;;;5052326;28;20029;-62
2022/03/04 01:22:33;;;;;;;7.07;5.00;;;;;;;;;;5054644;28;20415;-61
2022/03/04 01:24:59;;;;;;;7.18;5.10;;;;;;;;;;5043865;28;20017;-62
2022/03/04 01:27:24;;;;;;;6.57;4.95;;;;;;;;;;5062305;28;20074;-62
2022/03/04 01:29:49;;;;;;;7.95;5.85;;;;;;;;;;5055155;28;20017;-62
2022/03/04 01:32:15;;;;;;;6.63;5.15;;;;;;;;;;5040063;28;20024;-62
2022/03/04 01:34:40;;;;;;;7.65;5.80;;;;;;;;;;5072362;28;20488;-62
2022/03/04 01:37:06;;;;;;;6.55;4.93;;;;;;;;;;5073093;28;20020;-62
2022/03/04 01:39:31;;;;;;;7.57;6.35;;;;;;;;;;5072134;28;20316;-62
2022/03/04 01:41:56;;;;;;;5.18;4.38;;;;;;;;;;5059410;28;20082;-62
2022/03/04 01:44:22;;;;;;;6.70;5.32;;;;;;;;;;5053251;28;20029;-61
2022/03/04 01:46:47;;;;;;;8.75;5.82;;;;;;;;;;5052717;28;20044;-61
2022/03/04 01:49:13;;;;;;;5.18;4.68;;;;;;;;;;5054918;28;20028;-61
2022/03/04 01:51:38;;;;;;;8.07;5.47;;;;;;;;;;5060939;28;20029;-61
2022/03/04 01:54:03;;;;;;;6.63;5.38;;;;;;;;;;5047163;28;20036;-61
2022/03/04 01:56:29;;;;;;;6.20;5.13;;;;;;;;;;5049464;28;20100;-61
2022/03/04 01:58:54;;;;;;;8.48;5.95;;;;;;;;;;5051293;28;20028;-61
2022/03/04 02:01:19;;;;;;;7.72;5.00;;;;;;;;;;5054551;28;20504;-62
2022/03/04 02:03:45;;;;;;;5.47;4.07;;;;;;;;;;5060172;28;20496;-62
2022/03/04 02:06:10;;;;;;;6.40;4.85;;;;;;;;;;5053165;28;20032;-62
2022/03/04 02:08:35;;;;;;;7.35;5.47;;;;;;;;;;5034305;28;20082;-62
2022/03/04 02:11:00;;;;;;;6.93;4.88;;;;;;;;;;5053644;28;20079;-61
2022/03/04 02:13:26;;;;;;;6.35;5.10;;;;;;;;;;5031989;28;20375;-61
2022/03/04 02:15:51;;;;;;;6.20;5.25;;;;;;;;;;5065569;28;20033;-61
2022/03/04 02:18:17;;;;;;;6.05;4.43;;;;;;;;;;5052227;28;20036;-62
2022/03/04 02:20:52;;;;;;;6.30;4.38;;;;;;;;;;5035569;28;20025;-61
2022/03/04 02:23:17;;;;;;;;;;;;;;;;;;5047032;28;20029;-61
2022/03/04 02:25:44;;;;;;;7.18;5.05;;;;;;;;;;5053129;28;19912;-62
2022/03/04 02:28:10;;;;;;;6.90;5.10;;;;;;;;;;5032006;28;20108;-61
2022/03/04 02:30:36;;;;;;;7.97;5.85;;;;;;;;;;5049001;28;20442;-61
2022/03/04 02:33:02;;;;;;;6.05;4.30;;;;;;;;;;5042197;28;20028;-61
2022/03/04 02:35:30;;;;;;;6.30;4.70;;;;;;;;;;5046451;28;20017;-61
2022/03/04 02:37:55;;;;;;;7.57;4.05;;;;;;;;;;5051861;28;20029;-62
2022/03/04 02:40:20;;;;;;;6.70;4.95;;;;;;;;;;5055020;28;20466;-62
2022/03/04 02:42:46;;;;;;;3.60;2.83;;;;;;;;;;5044310;28;20366;-61
2022/03/04 02:45:11;;;;;;;6.07;4.27;;;;;;;;;;5052672;28;20086;-61
2022/03/04 02:47:36;;;;;;;5.85;4.03;;;;;;;;;;5051726;28;20264;-60
2022/03/04 02:50:01;;;;;;;5.35;4.35;;;;;;;;;;5058107;28;20032;-61
2022/03/04 02:52:27;;;;;;;4.28;3.25;;;;;;;;;;5058709;28;20032;-61
2022/03/04 02:54:52;;;;;;;5.85;4.25;;;;;;;;;;5042804;28;20105;-61
2022/03/04 02:57:17;;;;;;;5.70;4.47;;;;;;;;;;5056472;28;20025;-61
2022/03/04 02:59:42;;;;;;;4.85;3.55;;;;;;;;;;5062377;28;20025;-61
2022/03/04 03:02:08;;;;;;;5.03;3.75;;;;;;;;;;5058891;28;20037;-61
2022/03/04 03:04:33;;;;;;;4.60;3.88;;;;;;;;;;5069753;28;20053;-60
2022/03/04 03:06:59;;;;;;;5.28;4.10;;;;;;;;;;5071870;28;20128;-61
2022/03/04 03:09:24;;;;;;;3.97;3.30;;;;;;;;;;5061627;28;20025;-61
2022/03/04 03:11:49;;;;;;;3.28;2.97;;;;;;;;;;5055314;28;20028;-61
2022/03/04 03:14:15;;;;;;;4.72;3.72;;;;;;;;;;5052270;28;20029;-61
2022/03/04 03:16:40;;;;;;;4.05;3.25;;;;;;;;;;5053123;28;20021;-61
2022/03/04 03:19:08;;;;;;;4.63;3.35;;;;;;;;;;5057045;28;20111;-61
2022/03/04 03:21:33;;;;;;;4.82;3.63;;;;;;;;;;5058713;28;20059;-61
2022/03/04 03:23:58;;;;;;;6.10;4.65;;;;;;;;;;5048352;28;20060;-61
2022/03/04 03:26:23;;;;;;;5.60;3.70;;;;;;;;;;5034000;28;20029;-61
2022/03/04 03:28:48;;;;;;;4.18;3.13;;;;;;;;;;5037214;28;20043;-61
2022/03/04 03:31:14;;;;;;;7.03;4.85;;;;;;;;;;5046555;28;20025;-61
2022/03/04 03:33:41;;;;;;;6.47;4.40;;;;;;;;;;5038538;28;20032;-61
2022/03/04 03:36:06;;;;;;;6.20;4.70;;;;;;;;;;5064976;28;20017;-61
2022/03/04 03:38:31;;;;;;;6.15;3.90;;;;;;;;;;5035489;28;20087;-61
2022/03/04 03:40:57;;;;;;;6.80;4.70;;;;;;;;;;5067286;28;20080;-61
2022/03/04 03:43:22;;;;;;;5.32;3.88;;;;;;;;;;5036951;28;20064;-61
2022/03/04 03:45:47;;;;;;;7.03;4.30;;;;;;;;;;5055224;28;20028;-61
2022/03/04 03:48:12;;;;;;;6.18;3.40;;;;;;;;;;5065550;28;20021;-60
2022/03/04 03:50:38;;;;;;;5.30;4.75;;;;;;;;;;5040726;28;20477;-61
2022/03/04 03:53:04;;;;;;;6.57;4.35;;;;;;;;;;5036599;28;20381;-61
2022/03/04 03:55:29;;;;;;;5.28;4.10;;;;;;;;;;5053565;28;20032;-61
2022/03/04 03:57:54;;;;;;;4.80;4.22;;;;;;;;;;5034287;28;20076;-61
2022/03/04 04:00:19;;;;;;;14.38;4.10;;;;;;;;;;5054855;28;20114;-61
2022/03/04 04:02:44;;;;;;;6.28;5.10;;;;;;;;;;5058071;28;20021;-61
2022/03/04 04:05:13;;;;;;;9.18;5.05;;;;;;;;;;5064442;28;20040;-61
2022/03/04 04:07:38;;;;;;;6.10;4.93;;;;;;;;;;5056161;28;20025;-61
2022/03/04 04:10:04;;;;;;;5.65;4.47;;;;;;;;;;5055726;28;20021;-60
2022/03/04 04:12:29;;;;;;;4.05;3.45;;;;;;;;;;5053962;28;20048;-60
2022/03/04 04:14:54;;;;;;;6.80;3.90;;;;;;;;;;5061109;28;20021;-61
2022/03/04 04:17:19;;;;;;;6.35;5.22;;;;;;;;;;5043083;28;20269;-61
2022/03/04 04:19:44;;;;;;;5.47;3.78;;;;;;;;;;5056448;28;20039;-60
2022/03/04 04:22:09;;;;;;;4.60;4.13;;;;;;;;;;5056742;28;20037;-61
2022/03/04 04:24:35;;;;;;;5.82;4.88;;;;;;;;;;5057905;28;20012;-61
2022/03/04 04:27:00;;;;;;;6.65;5.00;;;;;;;;;;5072030;28;20048;-61
2022/03/04 04:29:25;;;;;;;5.88;4.30;;;;;;;;;;5042814;28;20438;-61
2022/03/04 04:31:50;;;;;;;5.22;3.78;;;;;;;;;;5051187;28;20493;-60
2022/03/04 04:34:16;;;;;;;4.78;3.85;;;;;;;;;;5055672;28;20116;-61
2022/03/04 04:36:41;;;;;;;5.15;3.95;;;;;;;;;;5067472;28;20130;-61
2022/03/04 04:39:06;;;;;;;4.78;3.85;;;;;;;;;;5069144;28;20482;-60
2022/03/04 04:41:31;;;;;;;5.32;4.40;;;;;;;;;;5073932;28;20028;-61
2022/03/04 04:43:57;;;;;;;5.97;4.55;;;;;;;;;;5038003;28;20074;-62
2022/03/04 04:46:22;;;;;;;6.30;4.15;;;;;;;;;;5054565;28;20021;-62
2022/03/04 04:48:47;;;;;;;4.90;4.15;;;;;;;;;;5058148;28;20076;-61
2022/03/04 04:51:12;;;;;;;4.78;4.13;;;;;;;;;;5035843;28;20112;-61
2022/03/04 04:53:38;;;;;;;5.03;4.00;;;;;;;;;;5055645;28;20318;-62
2022/03/04 04:56:04;;;;;;;4.88;4.00;;;;;;;;;;5031883;28;20066;-61
2022/03/04 04:58:29;;;;;;;4.45;3.50;;;;;;;;;;5060608;28;20024;-61
2022/03/04 05:00:54;;;;;;;7.45;5.13;;;;;;;;;;5064327;28;20402;-61
2022/03/04 05:03:23;;;;;;;5.28;3.97;;;;;;;;;;5040892;28;20482;-61
2022/03/04 05:05:48;;;;;;;6.93;5.15;;;;;;;;;;5064803;28;20031;-62
2022/03/04 05:08:13;;;;;;;7.10;5.22;;;;;;;;;;5071472;28;20095;-62
2022/03/04 05:10:39;;;;;;;7.80;5.05;;;;;;;;;;5067248;28;20059;-61
2022/03/04 05:13:04;;;;;;;5.97;4.45;;;;;;;;;;5061854;28;20032;-61
2022/03/04 05:15:29;;;;;;;6.93;5.03;;;;;;;;;;5054562;28;20510;-61
2022/03/04 05:17:54;;;;;;;6.60;4.95;;;;;;;;;;5053277;28;20040;-61
2022/03/04 05:20:20;;;;;;;4.25;3.47;;;;;;;;;;5052905;28;20029;-61
2022/03/04 05:22:45;;;;;;;5.65;4.32;;;;;;;;;;5054441;28;20046;-61
2022/03/04 05:25:10;;;;;;;5.95;4.38;;;;;;;;;;5034881;28;20564;-61
2022/03/04 05:27:36;;;;;;;5.70;4.35;;;;;;;;;;5055210;28;20393;-61
2022/03/04 05:30:01;;;;;;;5.68;4.13;;;;;;;;;;5051517;28;20024;-61
2022/03/04 05:32:26;;;;;;;7.80;5.03;;;;;;;;;;5052380;28;20485;-61
2022/03/04 05:34:51;;;;;;;5.30;4.00;;;;;;;;;;5069247;28;20031;-61
2022/03/04 05:37:16;;;;;;;5.70;4.25;;;;;;;;;;5063337;28;20429;-61
2022/03/04 05:39:42;;;;;;;5.78;3.92;;;;;;;;;;5052581;28;20021;-61
2022/03/04 05:42:07;;;;;;;5.95;4.55;;;;;;;;;;5051280;28;20115;-61
2022/03/04 05:44:32;;;;;;;6.45;5.20;;;;;;;;;;5065922;28;20024;-61
2022/03/04 05:46:57;;;;;;;5.63;4.20;;;;;;;;;;5071041;28;20025;-60
2022/03/04 05:49:22;;;;;;;5.85;4.32;;;;;;;;;;5051937;28;20023;-60
2022/03/04 05:51:47;;;;;;;5.50;4.05;;;;;;;;;;5052965;28;20043;-60
2022/03/04 05:54:13;;;;;;;6.05;4.75;;;;;;;;;;5048395;28;20037;-61
2022/03/04 05:56:38;;;;;;;6.13;4.80;;;;;;;;;;5052966;28;20060;-61
2022/03/04 05:59:03;;;;;;;4.82;4.20;;;;;;;;;;5048344;28;20079;-60
2022/03/04 06:01:28;;;;;;;6.55;5.47;;;;;;;;;;5060829;28;20021;-61
2022/03/04 06:03:53;;;;;;;6.35;5.13;;;;;;;;;;5059638;28;20048;-60
2022/03/04 06:06:20;;;;;;;6.55;4.88;;;;;;;;;;5068219;28;20103;-60
2022/03/04 06:08:45;;;;;;;6.68;4.50;;;;;;;;;;5068551;28;20020;-61
2022/03/04 06:11:11;;;;;;;6.22;4.32;;;;;;;;;;5063476;28;20120;-61
2022/03/04 06:13:37;;;;;;;5.95;4.80;;;;;;;;;;5051813;28;20155;-60
2022/03/04 06:16:02;;;;;;;6.53;5.25;;;;;;;;;;5066609;28;20511;-61
2022/03/04 06:18:27;;;;;;;6.20;5.03;;;;;;;;;;5072059;28;20024;-61
2022/03/04 06:20:52;;;;;;;8.25;4.88;;;;;;;;;;5063206;28;20392;-61
2022/03/04 06:23:18;;;;;;;6.13;4.05;;;;;;;;;;5050777;28;20155;-60
2022/03/04 06:25:43;;;;;;;6.43;4.35;;;;;;;;;;5031486;28;20034;-61
2022/03/04 06:28:08;;;;;;;5.57;4.45;;;;;;;;;;5041225;28;20071;-61
2022/03/04 06:30:36;;;;;;;5.25;4.28;;;;;;;;;;5050268;28;20029;-61
2022/03/04 06:35:45;;;;;;;6.95;5.18;;;;;;;;;;5067024;28;20401;-61
2022/03/04 06:38:11;;;;;;;9.45;6.82;;;;;;;;;;5057867;28;20473;-61
2022/03/04 06:40:37;;;;;;;8.02;5.70;;;;;;;;;;5051404;28;20067;-61
2022/03/04 06:43:02;;;;;;;10.65;7.30;;;;;;;;;;5048804;28;20021;-60
2022/03/04 06:45:28;;;;;;;11.40;7.63;;;;;;;;;;5051127;28;20067;-61
2022/03/04 06:47:53;;;;;;;9.75;6.45;;;;;;;;;;5045427;28;20579;-61
2022/03/04 06:50:18;;;;;;;11.38;7.65;;;;;;;;;;5047840;28;20434;-61
2022/03/04 06:52:43;;;;;;;7.40;5.57;;;;;;;;;;5044322;28;20468;-61
2022/03/04 06:55:09;;;;;;;8.65;6.55;;;;;;;;;;5038295;28;20298;-61
2022/03/04 06:57:34;;;;;;;11.80;8.00;;;;;;;;;;5056156;28;20036;-61
2022/03/04 07:00:00;;;;;;;8.63;5.93;;;;;;;;;;5048758;28;20029;-62
2022/03/04 07:02:25;;;;;;;9.57;8.18;;;;;;;;;;5048432;28;20504;-61
2022/03/04 07:04:50;;;;;;;9.75;6.70;;;;;;;;;;5065740;28;20044;-62
2022/03/04 07:07:15;;;;;;;8.48;6.65;;;;;;;;;;5062123;28;20104;-61
2022/03/04 07:09:41;;;;;;;9.80;6.22;;;;;;;;;;5051743;28;20028;-61
2022/03/04 07:12:06;;;;;;;10.02;6.93;;;;;;;;;;5055880;28;20465;-61
2022/03/04 07:14:31;;;;;;;10.60;6.78;;;;;;;;;;5045233;28;20021;-61
2022/03/04 07:16:56;;;;;;;8.88;6.22;;;;;;;;;;5060669;28;20025;-61
2022/03/04 07:19:21;;;;;;;10.18;7.63;;;;;;;;;;5036687;28;20041;-61
2022/03/04 07:21:47;;;;;;;8.55;6.90;;;;;;;;;;5055525;28;20070;-61
2022/03/04 07:24:12;;;;;;;10.90;8.00;;;;;;;;;;5054156;28;20028;-61
2022/03/04 07:26:38;;;;;;;10.98;7.22;;;;;;;;;;5046061;28;20497;-61
2022/03/04 07:29:03;;;;;;;12.35;7.65;;;;;;;;;;5050863;28;20411;-61
2022/03/04 07:31:28;;;;;;;11.45;8.10;;;;;;;;;;5075335;28;20025;-61
2022/03/04 07:33:53;;;;;;;9.30;6.65;;;;;;;;;;5079541;28;20024;-60
2022/03/04 07:36:19;;;;;;;10.65;7.22;;;;;;;;;;5054607;28;20039;-61
2022/03/04 07:38:44;;;;;;;10.85;7.78;;;;;;;;;;5058900;28;20064;-61
2022/03/04 07:41:09;;;;;;;13.60;7.90;;;;;;;;;;5062484;28;20385;-62
2022/03/04 07:43:34;;;;;;;9.05;5.70;;;;;;;;;;5054640;28;20473;-61
2022/03/04 07:46:00;;;;;;;9.32;6.75;;;;;;;;;;5055499;28;20070;-61
2022/03/04 07:48:27;;;;;;;10.68;6.20;;;;;;;;;;5056169;28;20107;-60
2022/03/04 07:50:52;;;;;;;7.13;5.85;;;;;;;;;;5053999;28;20032;-61
2022/03/04 07:53:18;;;;;;;12.52;8.15;;;;;;;;;;5051944;28;20235;-61
2022/03/04 07:55:43;;;;;;;11.75;7.57;;;;;;;;;;5029594;28;20079;-61
2022/03/04 07:58:08;;;;;;;9.60;7.18;;;;;;;;;;5047853;28;20393;-61
2022/03/04 08:00:33;;;;;;;8.65;5.82;;;;;;;;;;5062278;28;20025;-59
2022/03/04 08:02:59;;;;;;;9.45;6.18;;;;;;;;;;5063076;28;20025;-61
2022/03/04 08:05:24;;;;;;;9.95;7.22;;;;;;;;;;5069399;28;20183;-61
2022/03/04 08:07:50;;;;;;;9.82;6.13;;;;;;;;;;5054951;28;20017;-61
2022/03/04 08:10:15;;;;;;;9.80;7.00;;;;;;;;;;5054676;28;20078;-61
2022/03/04 08:12:40;;;;;;;10.02;7.25;;;;;;;;;;5046203;28;20453;-62
2022/03/04 08:15:07;;;;;;;7.38;5.47;;;;;;;;;;5065290;28;20048;-61
2022/03/04 08:17:32;;;;;;;7.10;5.47;;;;;;;;;;5034526;28;20121;-62
2022/03/04 08:19:57;;;;;;;9.35;6.50;;;;;;;;;;5053014;28;20097;-61
2022/03/04 08:22:23;;;;;;;8.18;6.15;;;;;;;;;;5054409;28;20021;-61
2022/03/04 08:24:48;;;;;;;8.40;6.93;;;;;;;;;;5044049;28;20017;-61
2022/03/04 08:27:13;;;;;;;10.10;7.50;;;;;;;;;;5055090;28;20024;-59
2022/03/04 08:29:38;;;;;;;9.07;6.53;;;;;;;;;;5055681;28;20067;-61
2022/03/04 08:32:04;;;;;;;8.05;6.30;;;;;;;;;;5072351;28;20042;-61
2022/03/04 08:34:29;;;;;;;8.75;6.18;;;;;;;;;;5054239;28;20025;-61
2022/03/04 08:36:54;;;;;;;8.35;6.45;;;;;;;;;;5055676;28;20021;-61
2022/03/04 08:39:20;;;;;;;7.05;5.70;;;;;;;;;;5054304;28;20029;-61
2022/03/04 08:41:45;;;;;;;8.43;6.25;;;;;;;;;;5042356;28;20033;-61
2022/03/04 08:44:10;;;;;;;7.85;6.20;;;;;;;;;;5050964;28;20028;-61
2022/03/04 08:46:38;;;;;;;7.07;5.55;;;;;;;;;;5038611;28;20472;-60
2022/03/04 08:49:03;;;;;;;7.18;4.88;;;;;;;;;;5059065;28;20029;-60
2022/03/04 08:51:29;;;;;;;9.85;5.57;;;;;;;;;;5053600;28;20037;-62
2022/03/04 08:53:54;;;;;;;6.28;4.22;;;;;;;;;;5047149;28;20445;-61
2022/03/04 08:56:19;;;;;;;6.57;4.85;;;;;;;;;;5038199;28;20028;-61
2022/03/04 08:58:45;;;;;;;5.22;3.85;;;;;;;;;;5040143;28;20033;-61
2022/03/04 09:01:10;;;;;;;7.40;5.55;;;;;;;;;;5064088;28;20029;-62
2022/03/04 09:03:35;;;;;;;5.80;4.95;;;;;;;;;;5039246;28;20054;-61
2022/03/04 09:06:00;;;;;;;7.53;5.15;;;;;;;;;;5033796;28;20539;-61
2022/03/04 09:08:25;;;;;;;7.90;5.40;;;;;;;;;;5033867;28;20018;-61
2022/03/04 09:10:51;;;;;;;9.35;7.03;;;;;;;;;;5064302;28;20044;-61
2022/03/04 09:13:16;;;;;;;5.88;4.35;;;;;;;;;;5055259;28;20060;-61
2022/03/04 09:15:41;;;;;;;5.88;4.45;;;;;;;;;;5053431;28;20273;-60
2022/03/04 09:18:06;;;;;;;7.63;6.00;;;;;;;;;;5035352;28;20512;-61
2022/03/04 09:20:32;;;;;;;7.53;5.13;;;;;;;;;;5054490;28;20029;-61
2022/03/04 09:22:57;;;;;;;5.45;4.53;;;;;;;;;;5060115;28;20480;-61
2022/03/04 09:25:23;;;;;;;7.28;5.75;;;;;;;;;;5053489;28;20024;-60
2022/03/04 09:27:50;;;;;;;7.25;6.35;;;;;;;;;;5062146;28;20025;-61
2022/03/04 09:30:15;;;;;;;6.38;5.05;;;;;;;;;;5060813;28;20065;-61
2022/03/04 09:32:41;;;;;;;8.05;5.97;;;;;;;;;;5057083;28;20306;-61
2022/03/04 09:35:07;;;;;;;9.63;7.20;;;;;;;;;;5072209;28;20473;-61
2022/03/04 09:37:32;;;;;;;7.30;5.85;;;;;;;;;;5060500;28;20028;-61
2022/03/04 09:39:58;;;;;;;7.20;5.47;;;;;;;;;;5052978;28;20094;-61
2022/03/04 09:42:23;;;;;;;6.45;4.50;;;;;;;;;;5062381;28;20027;-61
2022/03/04 09:44:48;;;;;;;7.28;5.05;;;;;;;;;;5058634;28;20459;-61
2022/03/04 09:47:17;;;;;;;5.38;4.32;;;;;;;;;;5063865;28;20025;-61
2022/03/04 09:49:42;;;;;;;4.72;4.18;;;;;;;;;;5064817;28;20024;-61
2022/03/04 09:52:08;;;;;;;7.22;5.63;;;;;;;;;;5061570;28;20035;-61
2022/03/04 09:54:34;;;;;;;6.25;5.30;;;;;;;;;;5046464;28;20070;-62
2022/03/04 09:57:08;;;;;;;5.25;4.28;;;;;;;;;;5139207;27;20474;-60
2022/03/04 09:59:33;;;;;;;5.63;4.88;;;;;;;;;;5116150;28;20492;-61
2022/03/04 10:01:59;;;;;;;5.15;4.55;;;;;;;;;;5113798;28;20027;-60
2022/03/04 10:04:27;;;;;;;4.97;4.25;;;;;;;;;;5122065;27;20036;-60
2022/03/04 10:06:53;;;;;;;5.35;4.05;;;;;;;;;;5125396;28;20100;-60
2022/03/04 10:09:33;;;;;;;5.88;4.88;;;;;;;;;;5124543;28;20095;-61
2022/03/04 10:12:02;;;;;;;5.38;3.97;;;;;;;;;;5122727;28;20028;-60
2022/03/04 10:14:28;;;;;;;6.03;4.53;;;;;;;;;;5117061;27;20047;-60
2022/03/04 10:16:55;;;;;;;4.90;3.40;;;;;;;;;;5124829;28;20125;-59
2022/03/04 10:19:21;;;;;;;5.07;4.13;;;;;;;;;;5120009;28;20495;-60
2022/03/04 10:21:52;;;;;;;6.10;3.80;;;;;;;;;;5118038;28;20024;-60
2022/03/04 10:24:18;;;;;;;3.97;3.50;;;;;;;;;;5114712;28;20468;-61
2022/03/04 10:26:44;;;;;;;5.80;4.75;;;;;;;;;;5116822;27;20502;-60
2022/03/04 10:29:17;;;;;;;5.07;3.83;;;;;;;;;;5113779;27;20016;-61
2022/03/04 10:32:02;;;;;;;5.03;3.10;;;;;;;;;;5126736;28;20027;-60
2022/03/04 10:34:27;;;;;;;3.63;2.88;;;;;;;;;;5119141;28;20028;-60
2022/03/04 10:36:54;;;;;;;4.32;3.17;;;;;;;;;;5127814;28;20407;-60
2022/03/04 10:39:19;;;;;;;4.25;3.47;;;;;;;;;;5114092;27;20016;-60
2022/03/04 10:41:49;;;;;;;4.45;3.50;;;;;;;;;;5111810;28;20015;-61
2022/03/04 10:44:24;;;;;;;4.75;3.83;;;;;;;;;;5116437;28;20103;-60
2022/03/04 10:46:56;;;;;;;4.68;3.38;;;;;;;;;;5108997;28;20502;-60
2022/03/04 10:49:25;;;;;;;2.78;2.17;;;;;;;;;;5108530;28;20052;-60
2022/03/04 10:51:51;;;;;;;3.17;2.00;;;;;;;;;;5116401;28;20114;-61
2022/03/04 10:54:19;;;;;;;5.18;3.83;;;;;;;;;;5114823;28;20248;-60
2022/03/04 10:56:55;;;;;;;4.00;3.15;;;;;;;;;;5127503;28;20121;-60
2022/03/04 10:59:21;;;;;;;3.35;3.05;;;;;;;;;;5127538;27;20027;-61
2022/03/04 11:01:49;;;;;;;2.40;2.00;;;;;;;;;;5125678;27;20020;-60
2022/03/04 11:04:18;;;;;;;4.15;3.40;;;;;;;;;;5117722;27;20360;-61
2022/03/04 11:06:45;;;;;;;2.78;2.55;;;;;;;;;;5124073;27;20032;-61
2022/03/04 11:09:11;;;;;;;3.00;2.50;;;;;;;;;;5114968;28;20494;-61
2022/03/04 11:11:36;;;;;;;4.93;3.65;;;;;;;;;;5106506;28;20050;-61
2022/03/04 11:14:02;;;;;;;3.42;2.50;;;;;;;;;;5106994;28;20361;-61
2022/03/04 11:16:27;;;;;;;1.88;1.73;;;;;;;;;;5102826;28;20032;-61
2022/03/04 11:18:54;;;;;;;3.60;3.10;;;;;;;;;;5114627;28;20011;-61
2022/03/04 11:21:19;;;;;;;4.07;3.15;;;;;;;;;;5112424;27;20072;-61
2022/03/04 11:23:46;;;;;;;5.00;3.58;;;;;;;;;;5109072;28;20036;-60
2022/03/04 11:26:17;;;;;;;4.18;3.15;;;;;;;;;;5112523;28;20107;-61
2022/03/04 11:28:44;;;;;;;3.63;2.63;;;;;;;;;;5105239;28;20088;-61
2022/03/04 11:31:10;;;;;;;3.85;3.22;;;;;;;;;;5110453;28;20027;-62
2022/03/04 11:33:42;;;;;;;3.40;2.45;;;;;;;;;;5114036;28;20529;-61
2022/03/04 11:36:09;;;;;;;3.95;2.70;;;;;;;;;;5113960;27;20020;-61
2022/03/04 11:39:00;;;;;;;3.05;2.85;;;;;;;;;;5098971;28;20126;-61
2022/03/04 11:41:34;;;;;;;3.40;2.65;;;;;;;;;;5097303;28;20027;-61
2022/03/04 11:44:18;;;;;;;2.70;1.93;;;;;;;;;;5109211;28;20058;-62
2022/03/04 11:46:43;;;;;;;3.97;2.40;;;;;;;;;;5102871;28;20021;-61
2022/03/04 11:49:27;;;;;;;1.90;1.33;;;;;;;;;;5110236;28;20031;-62
2022/03/04 11:52:07;;;;;;;3.22;2.50;;;;;;;;;;5107606;27;20750;-61
2022/03/04 11:54:32;;;;;;;3.10;2.80;;;;;;;;;;5105194;28;20015;-61
2022/03/04 11:56:57;;;;;;;3.20;2.70;;;;;;;;;;5107212;28;20051;-61
2022/03/04 11:59:23;;;;;;;4.70;2.55;;;;;;;;;;5105221;28;20016;-61
2022/03/04 12:01:48;;;;;;;5.15;2.47;;;;;;;;;;5109407;28;20056;-62
2022/03/04 12:04:14;;;;;;;2.80;2.38;;;;;;;;;;5112475;28;20031;-61
2022/03/04 12:06:40;;;;;;;3.72;2.15;;;;;;;;;;5104312;28;20012;-61
2022/03/04 12:09:26;;;;;;;3.60;1.77;;;;;;;;;;5101678;28;20019;-60
2022/03/04 12:11:51;;;;;;;;;;;;;;;;;;5110930;28;20024;-62
2022/03/04 12:14:16;;;;;;;6.40;1.90;;;;;;;;;;5104989;28;19919;-61
2022/03/04 12:16:49;;;;;;;3.17;1.70;;;;;;;;;;5112259;28;20492;-61
2022/03/04 12:19:30;;;;;;;3.42;1.73;;;;;;;;;;5111924;28;20254;-62
2022/03/04 12:21:56;;;;;;;3.35;2.22;;;;;;;;;;5098217;28;20051;-62
2022/03/04 12:24:28;;;;;;;2.90;2.00;;;;;;;;;;5097851;28;20032;-61
2022/03/04 12:26:54;;;;;;;4.88;2.00;;;;;;;;;;5108509;28;20215;-62
2022/03/04 12:29:19;;;;;;;4.57;2.15;;;;;;;;;;5106263;28;20024;-62
2022/03/04 12:31:44;;;;;;;5.32;2.53;;;;;;;;;;5104125;28;20031;-61
2022/03/04 12:34:21;;;;;;;3.47;2.03;;;;;;;;;;5099559;28;20035;-62
2022/03/04 12:36:46;;;;;;;5.13;2.67;;;;;;;;;;5095518;28;20020;-62
2022/03/04 12:39:11;;;;;;;4.97;2.03;;;;;;;;;;5105150;28;20023;-61
2022/03/04 12:41:37;;;;;;;5.18;3.22;;;;;;;;;;5111189;28;20020;-62
2022/03/04 12:44:06;;;;;;;3.90;2.20;;;;;;;;;;5112820;28;20483;-63
2022/03/04 12:46:32;;;;;;;3.50;2.03;;;;;;;;;;5111874;28;20054;-62
2022/03/04 12:48:57;;;;;;;6.53;3.22;;;;;;;;;;5103075;28;20034;-62
2022/03/04 12:51:30;;;;;;;5.63;2.38;;;;;;;;;;5112898;28;20028;-63
2022/03/04 12:53:57;;;;;;;4.97;2.22;;;;;;;;;;5107343;28;20024;-62
2022/03/04 12:56:22;;;;;;;6.50;2.00;;;;;;;;;;5109471;28;20051;-62
2022/03/04 12:58:49;;;;;;;4.72;1.73;;;;;;;;;;5102708;28;20032;-62
2022/03/04 13:01:15;;;;;;;4.40;2.13;;;;;;;;;;5093994;27;20495;-61
2022/03/04 13:03:45;;;;;;;2.92;1.70;;;;;;;;;;5107811;28;20522;-63
2022/03/04 13:06:10;;;;;;;3.25;1.77;;;;;;;;;;5109811;28;20483;-62
2022/03/04 13:08:44;;;;;;;3.47;1.30;;;;;;;;;;5103568;28;20026;-62
2022/03/04 13:11:20;;;;;;;2.47;1.25;;;;;;;;;;5102295;28;20030;-62
2022/03/04 13:13:46;;;;;;;4.85;1.55;;;;;;;;;;5111124;28;20080;-62
2022/03/04 13:16:12;;;;;;;2.75;1.60;;;;;;;;;;5112817;28;20468;-63
2022/03/04 13:18:38;;;;;;;3.08;1.35;;;;;;;;;;5112093;28;20022;-63
2022/03/04 13:21:04;;;;;;;3.45;1.20;;;;;;;;;;5112221;28;20035;-61
2022/03/04 13:23:29;;;;;;;3.20;1.33;;;;;;;;;;5100780;28;20031;-63
2022/03/04 13:26:03;;;;;;;1.38;1.13;;;;;;;;;;5111052;28;20023;-62
2022/03/04 13:28:48;;;;;;;2.90;1.50;;;;;;;;;;5108525;28;20024;-63
2022/03/04 13:31:24;;;;;;;2.58;1.80;;;;;;;;;;5092214;28;20102;-63
2022/03/04 13:33:54;;;;;;;2.88;1.83;;;;;;;;;;5096170;28;20085;-62
2022/03/04 13:36:36;;;;;;;3.38;2.10;;;;;;;;;;5108662;28;20028;-62
2022/03/04 13:39:08;;;;;;;4.28;2.40;;;;;;;;;;5112377;28;20020;-62
2022/03/04 13:41:33;;;;;;;4.38;2.22;;;;;;;;;;5098467;28;20057;-62
2022/03/04 13:44:25;;;;;;;4.15;2.00;;;;;;;;;;5103865;28;20074;-61
2022/03/04 13:47:00;;;;;;;2.03;1.30;;;;;;;;;;5105299;28;20036;-61
2022/03/04 13:49:41;;;;;;;3.67;1.40;;;;;;;;;;5110742;28;20046;-62
2022/03/04 13:52:06;;;;;;;3.97;2.33;;;;;;;;;;5094043;28;20469;-62
2022/03/04 13:54:50;;;;;;;4.53;1.90;;;;;;;;;;5103628;28;20027;-61
2022/03/04 13:57:24;;;;;;;4.50;1.70;;;;;;;;;;5110130;28;20046;-63
2022/03/04 13:59:50;;;;;;;1.77;1.50;;;;;;;;;;5096721;28;20028;-62
2022/03/04 14:02:15;;;;;;;2.70;1.92;;;;;;;;;;5099442;28;20534;-61
2022/03/04 14:04:56;;;;;;;4.25;1.15;;;;;;;;;;5106169;28;20110;-61
2022/03/04 14:07:22;;;;;;;8.52;2.05;;;;;;;;;;5104687;28;20036;-61
2022/03/04 14:09:56;;;;;;;4.45;2.35;;;;;;;;;;5104599;28;20016;-61
2022/03/04 14:12:22;;;;;;;2.60;2.35;;;;;;;;;;5102101;28;20023;-61
2022/03/04 14:14:48;;;;;;;4.03;1.55;;;;;;;;;;5102344;28;20043;-62
2022/03/04 14:17:13;;;;;;;2.45;1.60;;;;;;;;;;5110051;28;20407;-61
2022/03/04 14:19:39;;;;;;;3.60;2.00;;;;;;;;;;5104073;28;20099;-62
2022/03/04 14:22:05;;;;;;;4.75;1.48;;;;;;;;;;5096916;28;20028;-61
2022/03/04 14:24:30;;;;;;;3.05;1.42;;;;;;;;;;5098693;28;20023;-62
2022/03/04 14:26:55;;;;;;;2.72;1.10;;;;;;;;;;5098731;28;20764;-61
2022/03/04 14:29:22;;;;;;;3.47;1.17;;;;;;;;;;5098794;28;20115;-62
2022/03/04 14:31:47;;;;;;;4.57;0.65;;;;;;;;;;5102573;28;20043;-61
2022/03/04 14:34:12;;;;;;;5.97;0.63;;;;;;;;;;5107079;28;20617;-61
2022/03/04 14:36:38;;;;;;;3.00;0.70;;;;;;;;;;5103354;28;20588;-62
2022/03/04 14:39:04;;;;;;;3.25;1.60;;;;;;;;;;5102590;28;20030;-62
2022/03/04 14:41:29;;;;;;;3.15;1.40;;;;;;;;;;5099835;28;20050;-61